sensor_id;sensor_type;location;lat;lon;timestamp;P1;durP1;ratioP1;P2;durP2;ratioP2
69188;SDS011;56302;52.322;5.926;2023-01-29T00:01:59;21.70;;;10.70;;
69188;SDS011;56302;52.322;5.926;2023-01-29T00:04:25;22.00;;;10.48;;
69188;SDS011;56302;52.322;5.926;2023-01-29T00:06:50;20.07;;;10.10;;
69188;SDS011;56302;52.322;5.926;2023-01-29T00:09:16;22.85;;;10.52;;
69188;SDS011;56302;52.322;5.926;2023-01-29T00:11:42;22.47;;;11.40;;
69188;SDS011;56302;52.322;5.926;2023-01-29T00:14:08;19.40;;;10.35;;
69188;SDS011;56302;52.322;5.926;2023-01-29T00:16:33;23.17;;;11.20;;
69188;SDS011;56302;52.322;5.926;2023-01-29T00:18:59;19.67;;;9.43;;
69188;SDS011;56302;52.322;5.926;2023-01-29T00:21:26;22.58;;;10.05;;
69188;SDS011;56302;52.322;5.926;2023-01-29T00:23:52;19.87;;;9.73;;
69188;SDS011;56302;52.322;5.926;2023-01-29T00:26:19;19.05;;;10.63;;
69188;SDS011;56302;52.322;5.926;2023-01-29T00:28:45;21.58;;;10.23;;
69188;SDS011;56302;52.322;5.926;2023-01-29T00:31:14;20.43;;;10.43;;
69188;SDS011;56302;52.322;5.926;2023-01-29T00:33:41;19.98;;;10.20;;
69188;SDS011;56302;52.322;5.926;2023-01-29T00:36:08;21.50;;;10.50;;
69188;SDS011;56302;52.322;5.926;2023-01-29T00:38:35;23.05;;;11.15;;
69188;SDS011;56302;52.322;5.926;2023-01-29T00:43:49;21.73;;;10.05;;
69188;SDS011;56302;52.322;5.926;2023-01-29T00:46:33;20.85;;;10.57;;
69188;SDS011;56302;52.322;5.926;2023-01-29T00:48:58;23.77;;;11.30;;
69188;SDS011;56302;52.322;5.926;2023-01-29T00:51:24;20.80;;;10.52;;
69188;SDS011;56302;52.322;5.926;2023-01-29T00:53:49;18.63;;;9.73;;
69188;SDS011;56302;52.322;5.926;2023-01-29T00:56:15;24.47;;;11.40;;
69188;SDS011;56302;52.322;5.926;2023-01-29T00:58:40;22.83;;;11.07;;
69188;SDS011;56302;52.322;5.926;2023-01-29T01:01:06;24.23;;;11.07;;
69188;SDS011;56302;52.322;5.926;2023-01-29T01:03:31;22.98;;;11.45;;
69188;SDS011;56302;52.322;5.926;2023-01-29T01:06:06;23.07;;;11.40;;
69188;SDS011;56302;52.322;5.926;2023-01-29T01:08:33;23.73;;;11.80;;
69188;SDS011;56302;52.322;5.926;2023-01-29T01:11:17;23.63;;;12.18;;
69188;SDS011;56302;52.322;5.926;2023-01-29T01:13:43;24.88;;;12.02;;
69188;SDS011;56302;52.322;5.926;2023-01-29T01:16:12;23.23;;;11.47;;
69188;SDS011;56302;52.322;5.926;2023-01-29T01:18:40;25.88;;;12.00;;
69188;SDS011;56302;52.322;5.926;2023-01-29T01:21:05;21.53;;;11.47;;
69188;SDS011;56302;52.322;5.926;2023-01-29T01:23:31;23.35;;;11.70;;
69188;SDS011;56302;52.322;5.926;2023-01-29T01:25:57;24.67;;;13.00;;
69188;SDS011;56302;52.322;5.926;2023-01-29T01:28:23;20.67;;;11.57;;
69188;SDS011;56302;52.322;5.926;2023-01-29T01:30:49;22.98;;;12.15;;
69188;SDS011;56302;52.322;5.926;2023-01-29T01:33:14;24.43;;;12.67;;
69188;SDS011;56302;52.322;5.926;2023-01-29T01:35:40;24.05;;;11.88;;
69188;SDS011;56302;52.322;5.926;2023-01-29T01:38:05;24.33;;;12.17;;
69188;SDS011;56302;52.322;5.926;2023-01-29T01:40:31;24.30;;;13.10;;
69188;SDS011;56302;52.322;5.926;2023-01-29T01:42:57;21.40;;;12.15;;
69188;SDS011;56302;52.322;5.926;2023-01-29T01:47:58;24.25;;;11.77;;
69188;SDS011;56302;52.322;5.926;2023-01-29T01:50:30;24.70;;;12.50;;
69188;SDS011;56302;52.322;5.926;2023-01-29T01:53:06;24.13;;;13.15;;
69188;SDS011;56302;52.322;5.926;2023-01-29T01:55:45;23.83;;;12.52;;
69188;SDS011;56302;52.322;5.926;2023-01-29T01:58:16;24.57;;;12.87;;
69188;SDS011;56302;52.322;5.926;2023-01-29T02:00:48;24.88;;;12.20;;
69188;SDS011;56302;52.322;5.926;2023-01-29T02:03:14;27.42;;;13.02;;
69188;SDS011;56302;52.322;5.926;2023-01-29T02:06:01;25.15;;;13.30;;
69188;SDS011;56302;52.322;5.926;2023-01-29T02:08:52;24.58;;;12.10;;
69188;SDS011;56302;52.322;5.926;2023-01-29T02:11:58;24.33;;;12.17;;
69188;SDS011;56302;52.322;5.926;2023-01-29T02:14:24;24.42;;;12.30;;
69188;SDS011;56302;52.322;5.926;2023-01-29T02:16:50;26.70;;;13.52;;
69188;SDS011;56302;52.322;5.926;2023-01-29T02:30:15;25.00;;;13.07;;
69188;SDS011;56302;52.322;5.926;2023-01-29T02:35:49;24.23;;;13.10;;
69188;SDS011;56302;52.322;5.926;2023-01-29T02:38:23;26.30;;;13.83;;
69188;SDS011;56302;52.322;5.926;2023-01-29T02:44:16;23.73;;;12.65;;
69188;SDS011;56302;52.322;5.926;2023-01-29T02:49:55;22.73;;;12.95;;
69188;SDS011;56302;52.322;5.926;2023-01-29T02:55:16;23.63;;;12.80;;
69188;SDS011;56302;52.322;5.926;2023-01-29T02:58:07;26.00;;;12.18;;
69188;SDS011;56302;52.322;5.926;2023-01-29T03:00:38;23.88;;;12.50;;
69188;SDS011;56302;52.322;5.926;2023-01-29T03:03:20;24.80;;;12.68;;
69188;SDS011;56302;52.322;5.926;2023-01-29T03:08:34;23.20;;;12.43;;
69188;SDS011;56302;52.322;5.926;2023-01-29T03:11:12;23.25;;;12.63;;
69188;SDS011;56302;52.322;5.926;2023-01-29T03:13:45;27.05;;;13.32;;
69188;SDS011;56302;52.322;5.926;2023-01-29T03:16:30;23.08;;;12.82;;
69188;SDS011;56302;52.322;5.926;2023-01-29T03:19:04;23.07;;;12.40;;
69188;SDS011;56302;52.322;5.926;2023-01-29T03:22:05;22.65;;;12.13;;
69188;SDS011;56302;52.322;5.926;2023-01-29T03:27:22;22.17;;;12.10;;
69188;SDS011;56302;52.322;5.926;2023-01-29T03:30:24;21.90;;;11.90;;
69188;SDS011;56302;52.322;5.926;2023-01-29T03:33:11;21.20;;;12.20;;
69188;SDS011;56302;52.322;5.926;2023-01-29T03:35:42;22.20;;;12.43;;
69188;SDS011;56302;52.322;5.926;2023-01-29T03:38:24;24.70;;;13.35;;
69188;SDS011;56302;52.322;5.926;2023-01-29T03:43:49;22.85;;;11.70;;
69188;SDS011;56302;52.322;5.926;2023-01-29T03:46:23;22.03;;;12.03;;
69188;SDS011;56302;52.322;5.926;2023-01-29T03:49:00;24.20;;;12.25;;
69188;SDS011;56302;52.322;5.926;2023-01-29T03:57:23;22.50;;;11.73;;
69188;SDS011;56302;52.322;5.926;2023-01-29T04:01:58;25.02;;;11.70;;
69188;SDS011;56302;52.322;5.926;2023-01-29T04:04:28;20.70;;;12.10;;
69188;SDS011;56302;52.322;5.926;2023-01-29T04:07:03;21.13;;;12.18;;
69188;SDS011;56302;52.322;5.926;2023-01-29T04:12:10;24.67;;;12.87;;
69188;SDS011;56302;52.322;5.926;2023-01-29T04:14:38;23.05;;;11.70;;
69188;SDS011;56302;52.322;5.926;2023-01-29T04:17:15;25.40;;;12.23;;
69188;SDS011;56302;52.322;5.926;2023-01-29T04:19:45;22.17;;;11.60;;
69188;SDS011;56302;52.322;5.926;2023-01-29T04:22:17;21.20;;;11.43;;
69188;SDS011;56302;52.322;5.926;2023-01-29T04:25:07;23.70;;;12.20;;
69188;SDS011;56302;52.322;5.926;2023-01-29T04:32:53;24.87;;;11.40;;
69188;SDS011;56302;52.322;5.926;2023-01-29T04:38:21;23.50;;;12.20;;
69188;SDS011;56302;52.322;5.926;2023-01-29T04:46:26;25.50;;;12.33;;
69188;SDS011;56302;52.322;5.926;2023-01-29T04:49:43;27.08;;;11.93;;
69188;SDS011;56302;52.322;5.926;2023-01-29T04:52:31;23.00;;;11.80;;
69188;SDS011;56302;52.322;5.926;2023-01-29T04:55:32;23.75;;;11.77;;
69188;SDS011;56302;52.322;5.926;2023-01-29T04:58:05;22.27;;;12.15;;
69188;SDS011;56302;52.322;5.926;2023-01-29T05:00:45;25.53;;;12.50;;
69188;SDS011;56302;52.322;5.926;2023-01-29T05:03:14;24.30;;;12.73;;
69188;SDS011;56302;52.322;5.926;2023-01-29T05:05:41;23.58;;;12.75;;
69188;SDS011;56302;52.322;5.926;2023-01-29T05:08:09;24.55;;;12.38;;
69188;SDS011;56302;52.322;5.926;2023-01-29T05:10:38;24.35;;;13.05;;
69188;SDS011;56302;52.322;5.926;2023-01-29T05:13:05;23.43;;;12.57;;
69188;SDS011;56302;52.322;5.926;2023-01-29T05:15:38;23.98;;;13.35;;
69188;SDS011;56302;52.322;5.926;2023-01-29T05:18:24;24.88;;;12.80;;
69188;SDS011;56302;52.322;5.926;2023-01-29T05:20:50;24.77;;;13.10;;
69188;SDS011;56302;52.322;5.926;2023-01-29T05:23:18;25.92;;;12.75;;
69188;SDS011;56302;52.322;5.926;2023-01-29T05:25:45;27.40;;;13.65;;
69188;SDS011;56302;52.322;5.926;2023-01-29T05:28:12;24.40;;;12.55;;
69188;SDS011;56302;52.322;5.926;2023-01-29T05:30:41;24.00;;;12.65;;
69188;SDS011;56302;52.322;5.926;2023-01-29T05:33:12;26.20;;;14.07;;
69188;SDS011;56302;52.322;5.926;2023-01-29T05:35:39;26.38;;;13.30;;
69188;SDS011;56302;52.322;5.926;2023-01-29T05:38:05;30.00;;;13.50;;
69188;SDS011;56302;52.322;5.926;2023-01-29T05:40:30;25.73;;;13.83;;
69188;SDS011;56302;52.322;5.926;2023-01-29T05:42:56;26.93;;;14.03;;
69188;SDS011;56302;52.322;5.926;2023-01-29T05:45:21;28.05;;;13.25;;
69188;SDS011;56302;52.322;5.926;2023-01-29T05:47:47;26.20;;;13.80;;
69188;SDS011;56302;52.322;5.926;2023-01-29T05:50:12;22.97;;;12.87;;
69188;SDS011;56302;52.322;5.926;2023-01-29T05:52:39;25.13;;;13.25;;
69188;SDS011;56302;52.322;5.926;2023-01-29T05:55:05;27.52;;;14.18;;
69188;SDS011;56302;52.322;5.926;2023-01-29T05:57:32;25.42;;;13.77;;
69188;SDS011;56302;52.322;5.926;2023-01-29T05:59:57;26.70;;;13.60;;
69188;SDS011;56302;52.322;5.926;2023-01-29T06:02:23;27.30;;;13.97;;
69188;SDS011;56302;52.322;5.926;2023-01-29T06:04:49;28.03;;;14.50;;
69188;SDS011;56302;52.322;5.926;2023-01-29T06:07:16;27.30;;;14.23;;
69188;SDS011;56302;52.322;5.926;2023-01-29T06:09:42;26.30;;;13.85;;
69188;SDS011;56302;52.322;5.926;2023-01-29T06:12:07;25.43;;;12.87;;
69188;SDS011;56302;52.322;5.926;2023-01-29T06:14:33;26.90;;;13.55;;
69188;SDS011;56302;52.322;5.926;2023-01-29T06:16:58;26.43;;;13.67;;
69188;SDS011;56302;52.322;5.926;2023-01-29T06:19:24;28.13;;;14.63;;
69188;SDS011;56302;52.322;5.926;2023-01-29T06:21:49;25.23;;;13.43;;
69188;SDS011;56302;52.322;5.926;2023-01-29T06:24:15;24.67;;;13.48;;
69188;SDS011;56302;52.322;5.926;2023-01-29T06:26:40;29.37;;;14.03;;
69188;SDS011;56302;52.322;5.926;2023-01-29T06:29:06;27.57;;;14.30;;
69188;SDS011;56302;52.322;5.926;2023-01-29T06:31:32;27.50;;;14.27;;
69188;SDS011;56302;52.322;5.926;2023-01-29T06:33:57;26.07;;;14.10;;
69188;SDS011;56302;52.322;5.926;2023-01-29T06:36:23;28.63;;;13.53;;
69188;SDS011;56302;52.322;5.926;2023-01-29T06:38:48;26.00;;;13.88;;
69188;SDS011;56302;52.322;5.926;2023-01-29T06:41:15;26.23;;;13.73;;
69188;SDS011;56302;52.322;5.926;2023-01-29T06:43:45;26.80;;;13.73;;
69188;SDS011;56302;52.322;5.926;2023-01-29T06:46:11;28.40;;;14.73;;
69188;SDS011;56302;52.322;5.926;2023-01-29T06:48:38;26.63;;;14.15;;
69188;SDS011;56302;52.322;5.926;2023-01-29T06:51:04;28.80;;;14.25;;
69188;SDS011;56302;52.322;5.926;2023-01-29T06:53:31;24.42;;;14.13;;
69188;SDS011;56302;52.322;5.926;2023-01-29T06:55:58;28.13;;;14.33;;
69188;SDS011;56302;52.322;5.926;2023-01-29T06:58:23;27.10;;;14.57;;
69188;SDS011;56302;52.322;5.926;2023-01-29T07:00:49;29.60;;;14.63;;
69188;SDS011;56302;52.322;5.926;2023-01-29T07:03:15;28.98;;;14.95;;
69188;SDS011;56302;52.322;5.926;2023-01-29T07:05:41;26.03;;;14.67;;
69188;SDS011;56302;52.322;5.926;2023-01-29T07:08:06;27.17;;;13.77;;
69188;SDS011;56302;52.322;5.926;2023-01-29T07:10:33;25.40;;;13.20;;
69188;SDS011;56302;52.322;5.926;2023-01-29T07:12:59;29.90;;;15.15;;
69188;SDS011;56302;52.322;5.926;2023-01-29T07:15:25;28.20;;;14.70;;
69188;SDS011;56302;52.322;5.926;2023-01-29T07:18:01;28.17;;;14.03;;
69188;SDS011;56302;52.322;5.926;2023-01-29T07:20:36;26.00;;;13.60;;
69188;SDS011;56302;52.322;5.926;2023-01-29T07:23:03;24.33;;;13.63;;
69188;SDS011;56302;52.322;5.926;2023-01-29T07:25:28;26.67;;;14.07;;
69188;SDS011;56302;52.322;5.926;2023-01-29T07:27:54;25.80;;;13.75;;
69188;SDS011;56302;52.322;5.926;2023-01-29T07:30:20;24.73;;;13.80;;
69188;SDS011;56302;52.322;5.926;2023-01-29T07:32:45;28.08;;;14.63;;
69188;SDS011;56302;52.322;5.926;2023-01-29T07:35:11;29.48;;;14.52;;
69188;SDS011;56302;52.322;5.926;2023-01-29T07:37:36;25.57;;;14.60;;
69188;SDS011;56302;52.322;5.926;2023-01-29T07:40:02;28.43;;;14.77;;
69188;SDS011;56302;52.322;5.926;2023-01-29T07:42:34;25.30;;;13.52;;
69188;SDS011;56302;52.322;5.926;2023-01-29T07:44:59;25.90;;;14.85;;
69188;SDS011;56302;52.322;5.926;2023-01-29T07:47:25;24.17;;;13.67;;
69188;SDS011;56302;52.322;5.926;2023-01-29T07:49:50;23.87;;;14.23;;
69188;SDS011;56302;52.322;5.926;2023-01-29T07:52:16;25.93;;;14.90;;
69188;SDS011;56302;52.322;5.926;2023-01-29T07:54:42;26.17;;;13.95;;
69188;SDS011;56302;52.322;5.926;2023-01-29T07:57:08;23.77;;;13.93;;
69188;SDS011;56302;52.322;5.926;2023-01-29T07:59:33;25.60;;;14.32;;
69188;SDS011;56302;52.322;5.926;2023-01-29T08:01:59;25.67;;;14.37;;
69188;SDS011;56302;52.322;5.926;2023-01-29T08:04:24;25.03;;;13.97;;
69188;SDS011;56302;52.322;5.926;2023-01-29T08:06:50;24.05;;;13.90;;
69188;SDS011;56302;52.322;5.926;2023-01-29T08:09:15;24.02;;;14.15;;
69188;SDS011;56302;52.322;5.926;2023-01-29T08:11:41;27.53;;;14.20;;
69188;SDS011;56302;52.322;5.926;2023-01-29T08:14:06;24.63;;;14.40;;
69188;SDS011;56302;52.322;5.926;2023-01-29T08:16:33;25.15;;;14.43;;
69188;SDS011;56302;52.322;5.926;2023-01-29T08:19:00;25.85;;;14.25;;
69188;SDS011;56302;52.322;5.926;2023-01-29T08:21:26;22.65;;;14.00;;
69188;SDS011;56302;52.322;5.926;2023-01-29T08:23:52;23.47;;;14.17;;
69188;SDS011;56302;52.322;5.926;2023-01-29T08:26:17;23.70;;;13.40;;
69188;SDS011;56302;52.322;5.926;2023-01-29T08:28:43;24.88;;;14.23;;
69188;SDS011;56302;52.322;5.926;2023-01-29T08:31:12;25.17;;;13.93;;
69188;SDS011;56302;52.322;5.926;2023-01-29T08:33:39;24.55;;;13.70;;
69188;SDS011;56302;52.322;5.926;2023-01-29T08:36:05;23.60;;;13.77;;
69188;SDS011;56302;52.322;5.926;2023-01-29T08:38:31;23.73;;;13.15;;
69188;SDS011;56302;52.322;5.926;2023-01-29T08:40:57;24.63;;;13.93;;
69188;SDS011;56302;52.322;5.926;2023-01-29T08:43:22;23.37;;;13.90;;
69188;SDS011;56302;52.322;5.926;2023-01-29T08:45:48;21.83;;;12.98;;
69188;SDS011;56302;52.322;5.926;2023-01-29T08:48:13;26.90;;;14.97;;
69188;SDS011;56302;52.322;5.926;2023-01-29T08:50:39;26.60;;;13.13;;
69188;SDS011;56302;52.322;5.926;2023-01-29T08:53:06;27.63;;;13.80;;
69188;SDS011;56302;52.322;5.926;2023-01-29T08:55:36;25.02;;;14.07;;
69188;SDS011;56302;52.322;5.926;2023-01-29T08:58:04;23.40;;;14.27;;
69188;SDS011;56302;52.322;5.926;2023-01-29T09:00:31;24.87;;;14.07;;
69188;SDS011;56302;52.322;5.926;2023-01-29T09:02:57;25.25;;;13.68;;
69188;SDS011;56302;52.322;5.926;2023-01-29T09:05:24;24.05;;;13.48;;
69188;SDS011;56302;52.322;5.926;2023-01-29T09:07:50;29.33;;;14.48;;
69188;SDS011;56302;52.322;5.926;2023-01-29T09:10:16;22.40;;;12.80;;
69188;SDS011;56302;52.322;5.926;2023-01-29T09:12:41;24.63;;;13.63;;
69188;SDS011;56302;52.322;5.926;2023-01-29T09:15:07;23.30;;;13.55;;
69188;SDS011;56302;52.322;5.926;2023-01-29T09:17:33;24.58;;;12.65;;
69188;SDS011;56302;52.322;5.926;2023-01-29T09:19:59;25.10;;;12.97;;
69188;SDS011;56302;52.322;5.926;2023-01-29T09:22:24;24.67;;;14.40;;
69188;SDS011;56302;52.322;5.926;2023-01-29T09:24:50;26.48;;;14.15;;
69188;SDS011;56302;52.322;5.926;2023-01-29T09:27:15;24.63;;;13.37;;
69188;SDS011;56302;52.322;5.926;2023-01-29T09:29:41;23.10;;;13.40;;
69188;SDS011;56302;52.322;5.926;2023-01-29T09:32:06;27.25;;;14.20;;
69188;SDS011;56302;52.322;5.926;2023-01-29T09:34:32;20.92;;;12.32;;
69188;SDS011;56302;52.322;5.926;2023-01-29T09:36:58;24.17;;;13.33;;
69188;SDS011;56302;52.322;5.926;2023-01-29T09:39:23;25.15;;;13.45;;
69188;SDS011;56302;52.322;5.926;2023-01-29T09:41:55;21.53;;;12.57;;
69188;SDS011;56302;52.322;5.926;2023-01-29T09:47:16;24.25;;;12.30;;
69188;SDS011;56302;52.322;5.926;2023-01-29T09:49:45;21.90;;;12.50;;
69188;SDS011;56302;52.322;5.926;2023-01-29T09:52:15;21.25;;;12.55;;
69188;SDS011;56302;52.322;5.926;2023-01-29T09:57:18;25.45;;;13.43;;
69188;SDS011;56302;52.322;5.926;2023-01-29T09:59:57;22.17;;;13.05;;
69188;SDS011;56302;52.322;5.926;2023-01-29T10:07:58;22.92;;;12.38;;
69188;SDS011;56302;52.322;5.926;2023-01-29T10:10:48;23.75;;;13.13;;
69188;SDS011;56302;52.322;5.926;2023-01-29T10:16:05;24.33;;;12.63;;
69188;SDS011;56302;52.322;5.926;2023-01-29T10:21:38;23.60;;;12.95;;
69188;SDS011;56302;52.322;5.926;2023-01-29T10:26:44;25.13;;;12.68;;
69188;SDS011;56302;52.322;5.926;2023-01-29T10:29:12;23.47;;;12.97;;
69188;SDS011;56302;52.322;5.926;2023-01-29T10:31:42;20.42;;;11.90;;
69188;SDS011;56302;52.322;5.926;2023-01-29T10:34:12;23.30;;;12.65;;
69188;SDS011;56302;52.322;5.926;2023-01-29T10:36:40;21.70;;;12.10;;
69188;SDS011;56302;52.322;5.926;2023-01-29T10:39:15;22.47;;;12.30;;
69188;SDS011;56302;52.322;5.926;2023-01-29T10:47:38;26.55;;;12.90;;
69188;SDS011;56302;52.322;5.926;2023-01-29T10:50:34;23.65;;;12.82;;
69188;SDS011;56302;52.322;5.926;2023-01-29T10:53:17;22.87;;;13.00;;
69188;SDS011;56302;52.322;5.926;2023-01-29T10:58:53;22.85;;;13.30;;
69188;SDS011;56302;52.322;5.926;2023-01-29T11:01:22;21.42;;;12.43;;
69188;SDS011;56302;52.322;5.926;2023-01-29T11:04:00;23.60;;;13.32;;
69188;SDS011;56302;52.322;5.926;2023-01-29T11:06:31;26.13;;;12.47;;
69188;SDS011;56302;52.322;5.926;2023-01-29T11:11:55;22.73;;;11.98;;
69188;SDS011;56302;52.322;5.926;2023-01-29T11:14:29;23.05;;;12.85;;
69188;SDS011;56302;52.322;5.926;2023-01-29T11:17:01;22.67;;;13.05;;
69188;SDS011;56302;52.322;5.926;2023-01-29T11:19:35;23.63;;;12.37;;
69188;SDS011;56302;52.322;5.926;2023-01-29T11:22:03;24.58;;;12.38;;
69188;SDS011;56302;52.322;5.926;2023-01-29T11:24:28;23.80;;;13.02;;
69188;SDS011;56302;52.322;5.926;2023-01-29T11:26:55;24.97;;;13.00;;
69188;SDS011;56302;52.322;5.926;2023-01-29T11:32:02;25.52;;;13.30;;
69188;SDS011;56302;52.322;5.926;2023-01-29T11:35:02;23.23;;;12.77;;
69188;SDS011;56302;52.322;5.926;2023-01-29T11:37:40;22.30;;;13.47;;
69188;SDS011;56302;52.322;5.926;2023-01-29T11:42:42;23.50;;;13.10;;
69188;SDS011;56302;52.322;5.926;2023-01-29T11:45:23;25.25;;;13.80;;
69188;SDS011;56302;52.322;5.926;2023-01-29T11:47:57;24.67;;;13.30;;
69188;SDS011;56302;52.322;5.926;2023-01-29T11:50:26;25.03;;;13.47;;
69188;SDS011;56302;52.322;5.926;2023-01-29T11:52:53;25.75;;;14.00;;
69188;SDS011;56302;52.322;5.926;2023-01-29T11:55:21;25.35;;;13.73;;
69188;SDS011;56302;52.322;5.926;2023-01-29T11:57:49;27.38;;;14.68;;
69188;SDS011;56302;52.322;5.926;2023-01-29T12:00:35;23.52;;;13.77;;
69188;SDS011;56302;52.322;5.926;2023-01-29T12:03:18;24.10;;;14.63;;
69188;SDS011;56302;52.322;5.926;2023-01-29T12:06:02;26.10;;;13.85;;
69188;SDS011;56302;52.322;5.926;2023-01-29T12:08:31;28.77;;;14.57;;
69188;SDS011;56302;52.322;5.926;2023-01-29T12:13:38;28.50;;;14.57;;
69188;SDS011;56302;52.322;5.926;2023-01-29T12:16:18;28.63;;;15.47;;
69188;SDS011;56302;52.322;5.926;2023-01-29T12:19:35;26.10;;;14.88;;
69188;SDS011;56302;52.322;5.926;2023-01-29T12:21:48;27.13;;;15.40;;
69188;SDS011;56302;52.322;5.926;2023-01-29T12:24:24;26.38;;;14.98;;
69188;SDS011;56302;52.322;5.926;2023-01-29T12:27:04;29.80;;;15.48;;
69188;SDS011;56302;52.322;5.926;2023-01-29T12:29:48;29.53;;;15.37;;
69188;SDS011;56302;52.322;5.926;2023-01-29T12:32:25;28.17;;;15.05;;
69188;SDS011;56302;52.322;5.926;2023-01-29T12:40:39;31.08;;;16.20;;
69188;SDS011;56302;52.322;5.926;2023-01-29T12:43:13;32.43;;;16.60;;
69188;SDS011;56302;52.322;5.926;2023-01-29T12:45:47;29.60;;;16.20;;
69188;SDS011;56302;52.322;5.926;2023-01-29T12:51:16;31.80;;;16.80;;
69188;SDS011;56302;52.322;5.926;2023-01-29T12:54:04;28.50;;;16.17;;
69188;SDS011;56302;52.322;5.926;2023-01-29T12:56:33;27.30;;;14.83;;
69188;SDS011;56302;52.322;5.926;2023-01-29T12:59:21;33.70;;;16.60;;
69188;SDS011;56302;52.322;5.926;2023-01-29T13:01:53;33.65;;;17.75;;
69188;SDS011;56302;52.322;5.926;2023-01-29T13:07:00;31.38;;;16.55;;
69188;SDS011;56302;52.322;5.926;2023-01-29T13:09:34;31.27;;;17.27;;
69188;SDS011;56302;52.322;5.926;2023-01-29T13:12:04;30.58;;;16.95;;
69188;SDS011;56302;52.322;5.926;2023-01-29T13:14:40;34.28;;;16.63;;
69188;SDS011;56302;52.322;5.926;2023-01-29T13:17:23;31.88;;;17.25;;
69188;SDS011;56302;52.322;5.926;2023-01-29T13:20:02;34.17;;;17.48;;
69188;SDS011;56302;52.322;5.926;2023-01-29T13:22:35;31.93;;;16.70;;
69188;SDS011;56302;52.322;5.926;2023-01-29T13:25:04;31.35;;;16.55;;
69188;SDS011;56302;52.322;5.926;2023-01-29T13:27:31;30.98;;;17.13;;
69188;SDS011;56302;52.322;5.926;2023-01-29T13:29:58;31.38;;;16.10;;
69188;SDS011;56302;52.322;5.926;2023-01-29T13:32:27;32.57;;;17.13;;
69188;SDS011;56302;52.322;5.926;2023-01-29T13:34:55;32.35;;;17.30;;
69188;SDS011;56302;52.322;5.926;2023-01-29T13:37:28;32.55;;;16.08;;
69188;SDS011;56302;52.322;5.926;2023-01-29T13:39:57;31.35;;;16.60;;
69188;SDS011;56302;52.322;5.926;2023-01-29T13:42:43;31.57;;;17.93;;
69188;SDS011;56302;52.322;5.926;2023-01-29T13:45:32;33.83;;;17.10;;
69188;SDS011;56302;52.322;5.926;2023-01-29T13:50:50;35.83;;;18.48;;
69188;SDS011;56302;52.322;5.926;2023-01-29T13:53:25;31.13;;;16.98;;
69188;SDS011;56302;52.322;5.926;2023-01-29T13:55:52;33.60;;;18.07;;
69188;SDS011;56302;52.322;5.926;2023-01-29T14:00:55;30.65;;;17.30;;
69188;SDS011;56302;52.322;5.926;2023-01-29T14:13:39;31.77;;;17.58;;
69188;SDS011;56302;52.322;5.926;2023-01-29T14:18:47;33.25;;;17.75;;
69188;SDS011;56302;52.322;5.926;2023-01-29T14:23:55;32.40;;;17.75;;
69188;SDS011;56302;52.322;5.926;2023-01-29T14:26:40;31.30;;;17.08;;
69188;SDS011;56302;52.322;5.926;2023-01-29T14:34:43;34.50;;;19.00;;
69188;SDS011;56302;52.322;5.926;2023-01-29T14:39:43;35.92;;;17.23;;
69188;SDS011;56302;52.322;5.926;2023-01-29T14:42:36;33.25;;;17.02;;
69188;SDS011;56302;52.322;5.926;2023-01-29T14:45:19;36.78;;;17.25;;
69188;SDS011;56302;52.322;5.926;2023-01-29T14:53:00;36.28;;;18.38;;
69188;SDS011;56302;52.322;5.926;2023-01-29T14:55:37;34.13;;;17.33;;
69188;SDS011;56302;52.322;5.926;2023-01-29T15:01:19;32.17;;;16.20;;
69188;SDS011;56302;52.322;5.926;2023-01-29T15:03:50;31.30;;;17.35;;
69188;SDS011;56302;52.322;5.926;2023-01-29T15:06:25;31.35;;;17.42;;
69188;SDS011;56302;52.322;5.926;2023-01-29T15:08:52;29.80;;;16.25;;
69188;SDS011;56302;52.322;5.926;2023-01-29T15:11:43;30.83;;;17.48;;
69188;SDS011;56302;52.322;5.926;2023-01-29T15:14:28;30.67;;;17.27;;
69188;SDS011;56302;52.322;5.926;2023-01-29T15:17:15;30.67;;;16.67;;
69188;SDS011;56302;52.322;5.926;2023-01-29T15:19:43;31.35;;;17.50;;
69188;SDS011;56302;52.322;5.926;2023-01-29T15:22:19;31.60;;;16.20;;
69188;SDS011;56302;52.322;5.926;2023-01-29T15:24:46;29.67;;;16.60;;
69188;SDS011;56302;52.322;5.926;2023-01-29T15:27:27;32.57;;;15.83;;
69188;SDS011;56302;52.322;5.926;2023-01-29T15:29:55;32.60;;;15.95;;
69188;SDS011;56302;52.322;5.926;2023-01-29T15:32:27;31.77;;;17.08;;
69188;SDS011;56302;52.322;5.926;2023-01-29T15:34:59;30.17;;;15.55;;
69188;SDS011;56302;52.322;5.926;2023-01-29T15:37:32;33.75;;;17.80;;
69188;SDS011;56302;52.322;5.926;2023-01-29T15:39:59;28.93;;;16.03;;
69188;SDS011;56302;52.322;5.926;2023-01-29T15:42:29;33.25;;;16.90;;
69188;SDS011;56302;52.322;5.926;2023-01-29T15:45:28;30.98;;;16.52;;
69188;SDS011;56302;52.322;5.926;2023-01-29T15:47:58;30.77;;;15.25;;
69188;SDS011;56302;52.322;5.926;2023-01-29T15:50:30;29.67;;;15.20;;
69188;SDS011;56302;52.322;5.926;2023-01-29T15:52:59;32.87;;;17.50;;
69188;SDS011;56302;52.322;5.926;2023-01-29T15:55:28;30.20;;;15.23;;
69188;SDS011;56302;52.322;5.926;2023-01-29T15:57:55;30.02;;;16.38;;
69188;SDS011;56302;52.322;5.926;2023-01-29T16:00:22;30.58;;;17.02;;
69188;SDS011;56302;52.322;5.926;2023-01-29T16:02:51;34.50;;;17.30;;
69188;SDS011;56302;52.322;5.926;2023-01-29T16:05:17;30.20;;;15.60;;
69188;SDS011;56302;52.322;5.926;2023-01-29T16:07:51;33.17;;;16.67;;
69188;SDS011;56302;52.322;5.926;2023-01-29T16:10:20;30.10;;;15.77;;
69188;SDS011;56302;52.322;5.926;2023-01-29T16:12:53;28.40;;;15.45;;
69188;SDS011;56302;52.322;5.926;2023-01-29T16:15:30;31.58;;;17.15;;
69188;SDS011;56302;52.322;5.926;2023-01-29T16:18:19;34.63;;;16.65;;
69188;SDS011;56302;52.322;5.926;2023-01-29T16:20:49;31.15;;;17.05;;
69188;SDS011;56302;52.322;5.926;2023-01-29T16:23:21;31.57;;;17.20;;
69188;SDS011;56302;52.322;5.926;2023-01-29T16:25:54;32.25;;;16.17;;
69188;SDS011;56302;52.322;5.926;2023-01-29T16:28:25;31.63;;;17.58;;
69188;SDS011;56302;52.322;5.926;2023-01-29T16:30:55;33.15;;;16.52;;
69188;SDS011;56302;52.322;5.926;2023-01-29T16:33:22;32.77;;;16.77;;
69188;SDS011;56302;52.322;5.926;2023-01-29T16:35:57;33.08;;;17.02;;
69188;SDS011;56302;52.322;5.926;2023-01-29T16:38:25;33.72;;;17.90;;
69188;SDS011;56302;52.322;5.926;2023-01-29T16:46:24;35.28;;;18.48;;
69188;SDS011;56302;52.322;5.926;2023-01-29T16:48:51;31.77;;;17.17;;
69188;SDS011;56302;52.322;5.926;2023-01-29T16:51:22;33.72;;;19.27;;
69188;SDS011;56302;52.322;5.926;2023-01-29T16:53:57;37.30;;;18.20;;
69188;SDS011;56302;52.322;5.926;2023-01-29T16:56:25;36.60;;;18.13;;
69188;SDS011;56302;52.322;5.926;2023-01-29T16:58:53;33.58;;;17.73;;
69188;SDS011;56302;52.322;5.926;2023-01-29T17:01:20;33.85;;;18.08;;
69188;SDS011;56302;52.322;5.926;2023-01-29T17:03:54;32.60;;;18.10;;
69188;SDS011;56302;52.322;5.926;2023-01-29T17:06:26;34.13;;;17.70;;
69188;SDS011;56302;52.322;5.926;2023-01-29T17:08:55;35.60;;;18.07;;
69188;SDS011;56302;52.322;5.926;2023-01-29T17:11:22;36.55;;;18.27;;
69188;SDS011;56302;52.322;5.926;2023-01-29T17:13:55;34.53;;;19.10;;
69188;SDS011;56302;52.322;5.926;2023-01-29T17:16:25;37.87;;;19.80;;
69188;SDS011;56302;52.322;5.926;2023-01-29T17:18:55;36.45;;;18.67;;